Airfield :
LOGIN :

Register | Disclaimer

   EN    FR    IT 

 










Legend :    VFR   Marginal VFR   IFR   Intensive IFR   Very Intensive IFR
Visi :
Ceiling :
>= 8 km
>= 3000ft
5 to 8 km
1000 to 3000 ft
1500m to 5 km
500 to 1000 ft
800 to 1500m
200 to 500 ft
< 800m
< 200 ft
Symbols :   Thunderstorms  Fog  Heavy snow  Heavy precipitations  Wind > 20 kt
SIGMETs :     Misc.  Thunderstorms  Icing  Turbulence  Mountain Waves  Volcanic Ashes






- Airport Elevation : 2595 ft
- IATA code : SLM


LESA - Salamanca Matacan

CURRENT METAR :
  • 251230Z 26017KT 230V290 9999 2000NW -RA FEW007 SCT012 BKN020 12/11 Q1013

EXPIRED METARs :
  • 251221Z 25020G31KT 220V280 9999 2500NW -RA FEW016 BKN022 BKN028 13/11 Q1013
  • 251200Z 23019KT 9999 -DZ FEW018 BKN022 BKN028 15/10 Q1013
  • 251130Z 23020KT 9999 FEW014 BKN018 BKN032 14/10 Q1013
  • 251100Z 23020KT 9999 FEW014 BKN018 BKN035 14/10 Q1014
  • 251030Z 23018G28KT 9999 FEW014 BKN017 BKN035 14/10 Q1014
  • 251000Z 23020G30KT 9999 -RA FEW014 BKN018 BKN035 13/10 Q1014

TAF TAF LESA
Valid from the 25 at 09:00 until the 26 at 09:00 UTC


250800Z 2509/2609 26022KT 9999 BKN025 TX14/2512Z TN02/2606Z
TEMPO 2509/2521 25022G34KT 4000 RA SHRA BKN006 SCT015TCU
BECMG 2513/2514 27017KT
PROB40
TEMPO 2514/2521 27020G37KT FEW025CB
TEMPO 2603/2606 2000 BR BKN003



MET'MAP, your aeronautical weather chart ! - Copyright ORBIFLY December 2007 - Disclaimer

ORBIFLY MET'MAP TEAM :

Programming & Development : Alexandra Zaïnal
Concept & original design : Baudouin d'Aumeries
Assistance for programming : Marc-Olivier Méhu
Technical & hardware support : Manuel Goepfert

Contact : metmap@orbifly.com




SOURCES & CREDITS :

   NOAA